Time;durP1;ratioP1;P1;durP2;ratioP2;P2;SDS_P1;SDS_P2;PMS_P1;PMS_P2;Temp;Humidity;BMP_temperature;BMP_pressure;BME280_temperature;BME280_humidity;BME280_pressure;Samples;Min_cycle;Max_cycle;Signal;HPM_P1;HPM_P2
2022/12/10 00:01:51;;;;;;;13.70;10.60;;;;;;;;;;5099058;28;20300;-86
2022/12/10 00:04:20;;;;;;;14.55;12.45;;;;;;;;;;5098084;28;20295;-86
2022/12/10 00:06:49;;;;;;;12.85;11.55;;;;;;;;;;5098416;28;20298;-85
2022/12/10 00:09:20;;;;;;;13.25;11.48;;;;;;;;;;5098192;28;20321;-86
2022/12/10 00:11:47;;;;;;;12.07;10.40;;;;;;;;;;5098105;28;20666;-86
2022/12/10 00:14:15;;;;;;;12.40;10.95;;;;;;;;;;5098709;28;20200;-87
2022/12/10 00:16:43;;;;;;;12.48;10.40;;;;;;;;;;5099190;28;20291;-87
2022/12/10 00:19:11;;;;;;;13.40;11.00;;;;;;;;;;5099262;28;20632;-87
2022/12/10 00:21:39;;;;;;;11.70;9.90;;;;;;;;;;5098370;28;20251;-87
2022/12/10 00:24:07;;;;;;;13.85;10.52;;;;;;;;;;5080077;28;20239;-87
2022/12/10 00:26:38;;;;;;;12.50;10.63;;;;;;;;;;5081403;28;20235;-86
2022/12/10 00:29:10;;;;;;;13.57;10.60;;;;;;;;;;5080992;28;20217;-87
2022/12/10 00:31:39;;;;;;;14.98;11.73;;;;;;;;;;5080655;28;20673;-85
2022/12/10 00:34:09;;;;;;;13.02;10.85;;;;;;;;;;5078964;28;20201;-86
2022/12/10 00:36:41;;;;;;;10.63;9.10;;;;;;;;;;5078452;28;20233;-87
2022/12/10 00:39:10;;;;;;;11.68;10.25;;;;;;;;;;5079149;28;20228;-84
2022/12/10 00:41:38;;;;;;;10.77;9.10;;;;;;;;;;5079247;28;20217;-85
2022/12/10 00:44:06;;;;;;;11.13;9.38;;;;;;;;;;5078902;28;20306;-85
2022/12/10 00:46:34;;;;;;;13.38;10.95;;;;;;;;;;5079002;28;20231;-87
2022/12/10 00:49:02;;;;;;;11.60;9.98;;;;;;;;;;5080832;28;20586;-87
2022/12/10 00:51:30;;;;;;;13.75;10.70;;;;;;;;;;5081729;28;20249;-87
2022/12/10 00:53:59;;;;;;;15.88;11.57;;;;;;;;;;5080968;28;20227;-87
2022/12/10 00:56:29;;;;;;;12.05;10.77;;;;;;;;;;5082052;28;20209;-88
2022/12/10 00:58:58;;;;;;;12.15;10.30;;;;;;;;;;5082024;28;20756;-87
2022/12/10 01:01:31;;;;;;;13.20;10.85;;;;;;;;;;5082139;28;20236;-87
2022/12/10 01:04:01;;;;;;;13.20;10.50;;;;;;;;;;5082230;28;20244;-87
2022/12/10 01:06:31;;;;;;;13.93;11.27;;;;;;;;;;5082952;28;20585;-88
2022/12/10 01:09:01;;;;;;;13.48;11.38;;;;;;;;;;5082586;28;20185;-87
2022/12/10 01:11:33;;;;;;;12.20;10.40;;;;;;;;;;5082330;28;20204;-89
2022/12/10 01:14:02;;;;;;;12.57;11.15;;;;;;;;;;5081595;28;20185;-88
2022/12/10 01:16:30;;;;;;;12.10;9.77;;;;;;;;;;5080867;28;20197;-89
2022/12/10 01:18:59;;;;;;;12.50;10.75;;;;;;;;;;5081019;28;20197;-88
2022/12/10 01:21:28;;;;;;;12.15;10.02;;;;;;;;;;5081604;28;20270;-90
2022/12/10 01:23:58;;;;;;;13.80;11.35;;;;;;;;;;5081650;28;20578;-89
2022/12/10 01:26:28;;;;;;;12.75;10.68;;;;;;;;;;5081827;28;20550;-88
2022/12/10 01:28:56;;;;;;;12.38;10.52;;;;;;;;;;5081749;28;20280;-89
2022/12/10 01:31:27;;;;;;;10.50;9.40;;;;;;;;;;5081642;28;20247;-89
2022/12/10 01:33:55;;;;;;;12.25;10.88;;;;;;;;;;5081430;28;20212;-89
2022/12/10 01:36:25;;;;;;;13.48;11.30;;;;;;;;;;5081718;28;20201;-88
2022/12/10 01:38:53;;;;;;;16.15;12.43;;;;;;;;;;5081190;28;20186;-89
2022/12/10 01:41:24;;;;;;;12.02;10.65;;;;;;;;;;5076927;28;20702;-89
2022/12/10 01:43:56;;;;;;;11.90;10.65;;;;;;;;;;5076699;28;20272;-90
2022/12/10 01:46:27;;;;;;;14.32;11.60;;;;;;;;;;5076429;28;20204;-89
2022/12/10 01:48:55;;;;;;;14.02;11.00;;;;;;;;;;5076813;28;20650;-89
2022/12/10 01:51:24;;;;;;;13.38;10.18;;;;;;;;;;5076444;28;20781;-89
2022/12/10 01:53:52;;;;;;;11.52;10.10;;;;;;;;;;5076610;28;20259;-89
2022/12/10 01:56:21;;;;;;;10.80;9.13;;;;;;;;;;5077315;28;20288;-89
2022/12/10 01:58:51;;;;;;;15.35;11.27;;;;;;;;;;5077020;28;20284;-89
2022/12/10 02:01:28;;;;;;;13.38;10.90;;;;;;;;;;5076298;28;20251;-89
2022/12/10 02:04:06;;;;;;;13.45;10.65;;;;;;;;;;5076402;28;20650;-89
2022/12/10 02:06:57;;;;;;;13.35;11.68;;;;;;;;;;5079046;28;20740;-89
2022/12/10 02:09:28;;;;;;;12.02;10.57;;;;;;;;;;5080474;28;20260;-90
2022/12/10 02:12:07;;;;;;;12.75;10.38;;;;;;;;;;5079855;28;20221;-89
2022/12/10 02:14:50;;;;;;;11.88;10.35;;;;;;;;;;5080197;28;20270;-89
2022/12/10 02:17:24;;;;;;;11.38;10.05;;;;;;;;;;5080528;28;20288;-89
2022/12/10 02:20:05;;;;;;;12.95;11.10;;;;;;;;;;5079832;28;20247;-89
2022/12/10 02:22:38;;;;;;;13.18;10.85;;;;;;;;;;5079350;28;20736;-89
2022/12/10 02:25:08;;;;;;;14.23;11.65;;;;;;;;;;5079575;28;20283;-89
2022/12/10 02:27:43;;;;;;;12.82;11.52;;;;;;;;;;5079968;28;20665;-89
2022/12/10 02:30:12;;;;;;;13.05;10.88;;;;;;;;;;5080143;28;20698;-89
2022/12/10 02:32:42;;;;;;;12.07;10.75;;;;;;;;;;5079328;28;20707;-89
2022/12/10 02:35:15;;;;;;;13.95;12.18;;;;;;;;;;5079807;28;20196;-89
2022/12/10 02:37:48;;;;;;;13.13;10.90;;;;;;;;;;5079587;28;20282;-89
2022/12/10 02:40:21;;;;;;;14.60;12.63;;;;;;;;;;5080350;28;20274;-90
2022/12/10 02:42:51;;;;;;;13.85;10.60;;;;;;;;;;5079742;28;20259;-90
2022/12/10 02:45:23;;;;;;;16.00;12.77;;;;;;;;;;5079916;28;20254;-89
2022/12/10 02:47:51;;;;;;;14.45;11.85;;;;;;;;;;5079666;28;20189;-88
2022/12/10 02:50:20;;;;;;;14.70;12.15;;;;;;;;;;5080631;28;20260;-87
2022/12/10 02:52:48;;;;;;;16.10;11.98;;;;;;;;;;5089751;28;20232;-88
2022/12/10 02:55:16;;;;;;;14.52;11.75;;;;;;;;;;5099410;28;20326;-87
2022/12/10 02:57:58;;;;;;;14.40;11.55;;;;;;;;;;5098503;28;20187;-87
2022/12/10 03:00:27;;;;;;;13.95;11.52;;;;;;;;;;5099183;28;20184;-87
2022/12/10 03:03:09;;;;;;;15.27;12.70;;;;;;;;;;5100334;28;20251;-87
2022/12/10 03:05:44;;;;;;;14.25;11.18;;;;;;;;;;5100225;28;20247;-87
2022/12/10 03:08:16;;;;;;;13.98;11.38;;;;;;;;;;5098821;28;20231;-87
2022/12/10 03:10:50;;;;;;;16.17;13.18;;;;;;;;;;5099252;28;20208;-87
2022/12/10 03:13:20;;;;;;;13.18;11.23;;;;;;;;;;5099324;28;20252;-88
2022/12/10 03:15:50;;;;;;;13.70;11.20;;;;;;;;;;5099217;28;20227;-88
2022/12/10 03:18:19;;;;;;;13.73;12.20;;;;;;;;;;5097533;28;20263;-88
2022/12/10 03:20:48;;;;;;;13.73;12.18;;;;;;;;;;5098845;28;20277;-87
2022/12/10 03:23:18;;;;;;;15.30;12.10;;;;;;;;;;5098541;28;20211;-85
2022/12/10 03:25:47;;;;;;;14.48;11.73;;;;;;;;;;5099696;28;20231;-85
2022/12/10 03:28:15;;;;;;;15.23;13.13;;;;;;;;;;5100211;28;20200;-85
2022/12/10 03:30:44;;;;;;;14.55;11.27;;;;;;;;;;5100760;28;20207;-85
2022/12/10 03:33:13;;;;;;;16.00;12.70;;;;;;;;;;5101010;28;20255;-85
2022/12/10 03:35:41;;;;;;;14.20;11.23;;;;;;;;;;5097605;28;20652;-85
2022/12/10 03:38:09;;;;;;;12.95;11.18;;;;;;;;;;5095776;28;20263;-84
2022/12/10 03:40:37;;;;;;;14.25;11.75;;;;;;;;;;5095307;28;20228;-85
2022/12/10 03:43:04;;;;;;;13.82;11.80;;;;;;;;;;5095184;28;20268;-84
2022/12/10 03:45:32;;;;;;;14.68;11.45;;;;;;;;;;5095341;28;20701;-83
2022/12/10 03:47:59;;;;;;;16.45;13.00;;;;;;;;;;5095801;28;20257;-84
2022/12/10 03:50:28;;;;;;;16.77;13.18;;;;;;;;;;5095331;28;20251;-84
2022/12/10 03:52:55;;;;;;;17.55;12.77;;;;;;;;;;5084412;28;20229;-85
2022/12/10 03:55:23;;;;;;;14.88;12.80;;;;;;;;;;5074934;28;20325;-84
2022/12/10 03:57:50;;;;;;;13.77;12.27;;;;;;;;;;5074917;28;20234;-84
2022/12/10 04:00:19;;;;;;;16.00;12.90;;;;;;;;;;5074264;28;20260;-84
2022/12/10 04:02:46;;;;;;;15.35;12.88;;;;;;;;;;5074924;28;20661;-85
2022/12/10 04:05:14;;;;;;;14.85;13.18;;;;;;;;;;5074327;28;20224;-85
2022/12/10 04:07:42;;;;;;;15.93;13.32;;;;;;;;;;5074677;28;20295;-83
2022/12/10 04:10:10;;;;;;;16.02;12.77;;;;;;;;;;5074243;28;20232;-85
2022/12/10 04:12:38;;;;;;;14.43;12.65;;;;;;;;;;5074614;28;20279;-85
2022/12/10 04:17:52;;;;;;;16.95;13.82;;;;;;;;;;5073927;28;20196;-85
2022/12/10 04:28:36;;;;;;;17.55;13.98;;;;;;;;;;5093004;28;20270;-83
2022/12/10 04:31:03;;;;;;;15.52;13.75;;;;;;;;;;5093917;28;20316;-84
2022/12/10 04:33:31;;;;;;;14.38;12.82;;;;;;;;;;5094356;28;20315;-85
2022/12/10 04:35:58;;;;;;;18.15;14.00;;;;;;;;;;5095042;28;20232;-85
2022/12/10 04:38:27;;;;;;;18.85;14.55;;;;;;;;;;5094087;28;20240;-85
2022/12/10 04:41:01;;;;;;;18.83;14.07;;;;;;;;;;5093801;28;20292;-86
2022/12/10 04:43:28;;;;;;;17.33;14.05;;;;;;;;;;5094187;28;20184;-86
2022/12/10 04:45:57;;;;;;;21.20;15.40;;;;;;;;;;5094375;28;20617;-84
2022/12/10 04:48:24;;;;;;;17.48;14.73;;;;;;;;;;5094395;28;20208;-85
2022/12/10 04:50:52;;;;;;;18.80;14.32;;;;;;;;;;5094965;28;20287;-85
2022/12/10 04:53:19;;;;;;;17.23;13.02;;;;;;;;;;5094505;28;20288;-86
2022/12/10 04:55:48;;;;;;;14.88;12.93;;;;;;;;;;5094111;28;20292;-84
2022/12/10 04:58:16;;;;;;;17.20;13.10;;;;;;;;;;5094003;28;20200;-84
2022/12/10 05:00:43;;;;;;;18.55;15.35;;;;;;;;;;5093759;28;20283;-85
2022/12/10 05:03:11;;;;;;;21.88;15.48;;;;;;;;;;5093476;28;20228;-84
2022/12/10 05:05:38;;;;;;;19.73;15.30;;;;;;;;;;5093749;28;20675;-84
2022/12/10 05:08:06;;;;;;;17.88;14.35;;;;;;;;;;5093889;28;20287;-84
2022/12/10 05:10:36;;;;;;;21.50;16.27;;;;;;;;;;5094137;28;20568;-84
2022/12/10 05:13:04;;;;;;;23.83;17.80;;;;;;;;;;5093637;28;20304;-84
2022/12/10 05:15:32;;;;;;;22.52;18.13;;;;;;;;;;5094257;28;20303;-84
2022/12/10 05:17:59;;;;;;;21.85;16.67;;;;;;;;;;5094074;28;20226;-81
2022/12/10 05:20:27;;;;;;;23.83;18.90;;;;;;;;;;5094335;28;20196;-83
2022/12/10 05:25:52;;;;;;;22.30;17.02;;;;;;;;;;5062645;28;20197;-84
2022/12/10 05:28:21;;;;;;;26.55;18.30;;;;;;;;;;5072860;28;20221;-84
2022/12/10 05:30:49;;;;;;;22.20;17.13;;;;;;;;;;5072086;28;20208;-84
2022/12/10 05:33:17;;;;;;;23.48;17.17;;;;;;;;;;5073129;28;20291;-84
2022/12/10 05:35:44;;;;;;;22.17;17.65;;;;;;;;;;5074133;28;20596;-84
2022/12/10 05:38:12;;;;;;;23.17;17.55;;;;;;;;;;5073791;28;20228;-84
2022/12/10 05:40:39;;;;;;;24.65;18.33;;;;;;;;;;5076159;28;20283;-84
2022/12/10 05:43:07;;;;;;;21.73;16.67;;;;;;;;;;5077805;28;20640;-84
2022/12/10 05:45:36;;;;;;;22.17;17.92;;;;;;;;;;5077835;28;20288;-84
2022/12/10 05:48:03;;;;;;;24.63;17.30;;;;;;;;;;5077286;28;20661;-84
2022/12/10 05:50:33;;;;;;;22.50;16.73;;;;;;;;;;5076875;28;20734;-85
2022/12/10 05:53:00;;;;;;;24.42;18.30;;;;;;;;;;5088151;28;20302;-85
2022/12/10 05:55:28;;;;;;;23.80;17.73;;;;;;;;;;5097099;28;20311;-85
2022/12/10 05:57:56;;;;;;;25.58;17.95;;;;;;;;;;5096942;28;20200;-85
2022/12/10 06:00:23;;;;;;;26.63;19.98;;;;;;;;;;5096623;28;20264;-85
2022/12/10 06:02:53;;;;;;;24.27;17.58;;;;;;;;;;5096976;28;20637;-85
2022/12/10 06:05:20;;;;;;;23.42;17.85;;;;;;;;;;5097154;28;20801;-85
2022/12/10 06:07:48;;;;;;;23.08;18.92;;;;;;;;;;5097421;28;20289;-85
2022/12/10 06:10:16;;;;;;;24.15;18.45;;;;;;;;;;5097073;28;20243;-85
2022/12/10 06:12:43;;;;;;;22.65;17.10;;;;;;;;;;5096808;28;20260;-85
2022/12/10 06:15:11;;;;;;;24.05;18.27;;;;;;;;;;5096871;28;20373;-84
2022/12/10 06:17:39;;;;;;;24.55;18.85;;;;;;;;;;5096655;28;20260;-83
2022/12/10 06:20:10;;;;;;;25.55;19.20;;;;;;;;;;5097039;28;20300;-85
2022/12/10 06:22:37;;;;;;;24.77;17.05;;;;;;;;;;5096747;28;20235;-85
2022/12/10 06:25:06;;;;;;;23.75;17.27;;;;;;;;;;5096773;28;20284;-83
2022/12/10 06:27:34;;;;;;;26.00;17.95;;;;;;;;;;5096723;28;20208;-84
2022/12/10 06:30:01;;;;;;;24.88;16.85;;;;;;;;;;5097059;28;20238;-84
2022/12/10 06:32:29;;;;;;;24.27;18.58;;;;;;;;;;5097020;28;20302;-84
2022/12/10 06:34:56;;;;;;;25.88;18.48;;;;;;;;;;5097049;28;20311;-82
2022/12/10 06:37:25;;;;;;;25.65;18.10;;;;;;;;;;5096696;28;20235;-84
2022/12/10 06:39:53;;;;;;;24.27;17.25;;;;;;;;;;5096736;28;20207;-84
2022/12/10 06:42:20;;;;;;;25.35;17.17;;;;;;;;;;5096634;28;20228;-84
2022/12/10 06:44:48;;;;;;;20.40;15.27;;;;;;;;;;5097354;28;20287;-84
2022/12/10 06:47:16;;;;;;;27.80;18.17;;;;;;;;;;5096793;28;20224;-84
2022/12/10 06:49:43;;;;;;;21.48;15.40;;;;;;;;;;5096706;28;20292;-84
2022/12/10 06:52:11;;;;;;;24.90;16.90;;;;;;;;;;5091681;28;20228;-84
2022/12/10 06:54:40;;;;;;;23.00;16.98;;;;;;;;;;5076099;28;20201;-85
2022/12/10 06:57:07;;;;;;;22.08;16.58;;;;;;;;;;5076338;28;20293;-83
2022/12/10 06:59:35;;;;;;;21.98;15.98;;;;;;;;;;5075419;28;20201;-85
2022/12/10 07:02:02;;;;;;;23.92;15.82;;;;;;;;;;5075283;28;20312;-84
2022/12/10 07:04:30;;;;;;;24.50;16.67;;;;;;;;;;5075721;28;20650;-84
2022/12/10 07:06:57;;;;;;;22.65;17.58;;;;;;;;;;5076099;28;20235;-85
2022/12/10 07:09:25;;;;;;;23.88;16.63;;;;;;;;;;5075960;28;20717;-84
2022/12/10 07:11:54;;;;;;;24.92;17.25;;;;;;;;;;5075914;28;20772;-84
2022/12/10 07:14:21;;;;;;;19.25;15.05;;;;;;;;;;5075860;28;20213;-85
2022/12/10 07:16:49;;;;;;;24.65;17.05;;;;;;;;;;5075925;28;20227;-84
2022/12/10 07:19:16;;;;;;;21.40;15.15;;;;;;;;;;5075306;28;20248;-85
2022/12/10 07:21:45;;;;;;;23.88;16.98;;;;;;;;;;5075061;28;20672;-84
2022/12/10 07:24:16;;;;;;;24.65;14.90;;;;;;;;;;5076118;28;20219;-83
2022/12/10 07:26:45;;;;;;;25.08;17.20;;;;;;;;;;5076585;28;20264;-83
2022/12/10 07:29:18;;;;;;;21.90;16.48;;;;;;;;;;5076221;28;20292;-84
2022/12/10 07:31:47;;;;;;;21.50;15.75;;;;;;;;;;5075794;28;20304;-84
2022/12/10 07:34:15;;;;;;;23.58;16.98;;;;;;;;;;5076157;28;20670;-84
2022/12/10 07:36:43;;;;;;;21.25;15.82;;;;;;;;;;5076048;28;20554;-84
2022/12/10 07:39:16;;;;;;;22.25;17.40;;;;;;;;;;5075303;28;20291;-84
2022/12/10 07:41:45;;;;;;;21.88;15.93;;;;;;;;;;5075181;28;20257;-84
2022/12/10 07:44:14;;;;;;;25.02;17.13;;;;;;;;;;5075044;28;20760;-84
2022/12/10 07:46:42;;;;;;;21.35;16.17;;;;;;;;;;5075301;28;20302;-84
2022/12/10 07:49:09;;;;;;;19.98;14.43;;;;;;;;;;5074737;28;20784;-85
2022/12/10 07:51:37;;;;;;;20.80;15.10;;;;;;;;;;5077285;28;20240;-85
2022/12/10 07:54:04;;;;;;;19.63;16.02;;;;;;;;;;5091745;28;20774;-84
2022/12/10 07:56:32;;;;;;;20.45;15.35;;;;;;;;;;5088491;28;20307;-84
2022/12/10 07:58:59;;;;;;;22.55;15.45;;;;;;;;;;5094576;28;20287;-84
2022/12/10 08:01:28;;;;;;;24.88;17.33;;;;;;;;;;5094689;28;20255;-84
2022/12/10 08:03:57;;;;;;;21.17;15.27;;;;;;;;;;5094376;28;20231;-84
2022/12/10 08:06:26;;;;;;;23.98;16.67;;;;;;;;;;5094579;28;20637;-84
2022/12/10 08:08:54;;;;;;;20.08;15.13;;;;;;;;;;5094608;28;20193;-85
2022/12/10 08:11:23;;;;;;;21.73;17.05;;;;;;;;;;5094401;28;20230;-84
2022/12/10 08:13:51;;;;;;;21.20;16.00;;;;;;;;;;5094364;28;20274;-86
2022/12/10 08:16:22;;;;;;;22.15;16.00;;;;;;;;;;5094229;28;20311;-85
2022/12/10 08:18:51;;;;;;;21.40;15.52;;;;;;;;;;5094155;28;20242;-84
2022/12/10 08:21:21;;;;;;;20.85;15.30;;;;;;;;;;5093979;28;20315;-86
2022/12/10 08:23:49;;;;;;;21.73;15.38;;;;;;;;;;5094159;28;20288;-85
2022/12/10 08:26:18;;;;;;;22.45;16.40;;;;;;;;;;5094445;28;20284;-84
2022/12/10 08:28:46;;;;;;;25.67;17.60;;;;;;;;;;5093591;28;20267;-85
2022/12/10 08:31:15;;;;;;;20.58;14.88;;;;;;;;;;5094425;28;20273;-84
2022/12/10 08:33:43;;;;;;;26.25;16.52;;;;;;;;;;5094151;28;20236;-85
2022/12/10 08:36:15;;;;;;;20.77;14.45;;;;;;;;;;5094125;28;20673;-85
2022/12/10 08:38:43;;;;;;;25.23;17.67;;;;;;;;;;5094124;28;20689;-85
2022/12/10 08:41:13;;;;;;;21.00;14.63;;;;;;;;;;5094372;28;20243;-84
2022/12/10 08:43:41;;;;;;;21.33;14.38;;;;;;;;;;5094431;28;20249;-85
2022/12/10 08:46:09;;;;;;;19.70;14.82;;;;;;;;;;5095286;28;20643;-84
2022/12/10 08:48:38;;;;;;;21.15;15.35;;;;;;;;;;5094374;28;20698;-82
2022/12/10 08:51:08;;;;;;;21.25;13.85;;;;;;;;;;5093796;28;20831;-84
2022/12/10 08:53:37;;;;;;;22.48;15.65;;;;;;;;;;5078020;28;20286;-84
2022/12/10 08:56:05;;;;;;;20.70;15.73;;;;;;;;;;5074620;28;20737;-84
2022/12/10 08:58:32;;;;;;;20.85;15.20;;;;;;;;;;5074764;28;20733;-85
2022/12/10 09:01:01;;;;;;;23.77;15.35;;;;;;;;;;5073885;28;20307;-84
2022/12/10 09:03:28;;;;;;;20.52;14.80;;;;;;;;;;5073895;28;20250;-84
2022/12/10 09:05:56;;;;;;;19.60;13.77;;;;;;;;;;5073684;28;20721;-84
2022/12/10 09:08:23;;;;;;;19.90;13.80;;;;;;;;;;5072405;28;20264;-84
2022/12/10 09:10:52;;;;;;;20.52;12.90;;;;;;;;;;5073666;28;20717;-84
2022/12/10 09:13:20;;;;;;;17.35;14.02;;;;;;;;;;5074192;28;20247;-85
2022/12/10 09:15:52;;;;;;;16.05;10.98;;;;;;;;;;5073843;28;20227;-85
2022/12/10 09:18:20;;;;;;;16.40;11.45;;;;;;;;;;5074185;28;20279;-84
2022/12/10 09:20:47;;;;;;;17.05;11.70;;;;;;;;;;5073100;28;20205;-85
2022/12/10 09:23:15;;;;;;;19.27;13.07;;;;;;;;;;5086773;28;20657;-83
2022/12/10 09:25:42;;;;;;;18.40;12.32;;;;;;;;;;5094046;28;20272;-83
2022/12/10 09:28:11;;;;;;;14.25;10.55;;;;;;;;;;5093643;28;20287;-86
2022/12/10 09:30:39;;;;;;;15.18;10.65;;;;;;;;;;5093831;28;20608;-85
2022/12/10 09:33:07;;;;;;;18.48;11.73;;;;;;;;;;5094020;28;20233;-85
2022/12/10 09:35:34;;;;;;;15.68;11.50;;;;;;;;;;5098479;28;20231;-84
2022/12/10 09:38:02;;;;;;;14.38;9.82;;;;;;;;;;5097970;28;20230;-85
2022/12/10 09:40:41;;;;;;;19.63;11.73;;;;;;;;;;5097852;28;20683;-85
2022/12/10 09:43:18;;;;;;;18.42;12.30;;;;;;;;;;5097717;28;20228;-84
2022/12/10 09:45:59;;;;;;;19.55;11.40;;;;;;;;;;5098134;28;20194;-81
2022/12/10 09:48:33;;;;;;;15.82;11.55;;;;;;;;;;5098158;28;20240;-84
2022/12/10 09:51:07;;;;;;;16.58;11.60;;;;;;;;;;5098897;28;20283;-84
2022/12/10 09:53:38;;;;;;;14.98;11.48;;;;;;;;;;5093543;28;20284;-84
2022/12/10 09:56:06;;;;;;;16.88;12.43;;;;;;;;;;5094058;28;20247;-83
2022/12/10 09:58:36;;;;;;;13.15;10.90;;;;;;;;;;5084661;28;20201;-84
2022/12/10 10:01:06;;;;;;;16.80;12.82;;;;;;;;;;5096555;28;20254;-83
2022/12/10 10:03:39;;;;;;;13.98;10.23;;;;;;;;;;5096025;28;20717;-84
2022/12/10 10:06:10;;;;;;;15.43;10.98;;;;;;;;;;5097365;28;20691;-84
2022/12/10 10:08:41;;;;;;;16.45;12.20;;;;;;;;;;5097562;28;20192;-84
2022/12/10 10:11:13;;;;;;;15.88;11.07;;;;;;;;;;5089892;28;20243;-84
2022/12/10 10:13:45;;;;;;;15.02;12.30;;;;;;;;;;5078170;28;20268;-84
2022/12/10 10:16:23;;;;;;;17.92;13.98;;;;;;;;;;5077968;28;20219;-83
2022/12/10 10:18:57;;;;;;;17.10;13.13;;;;;;;;;;5077432;28;20252;-84
2022/12/10 10:21:27;;;;;;;16.60;12.68;;;;;;;;;;5078551;28;20832;-84
2022/12/10 10:23:54;;;;;;;16.27;11.93;;;;;;;;;;5096075;28;20208;-82
2022/12/10 10:26:24;;;;;;;16.30;11.75;;;;;;;;;;5099083;28;20274;-84
2022/12/10 10:28:56;;;;;;;16.83;14.00;;;;;;;;;;5100658;28;20742;-83
2022/12/10 10:31:27;;;;;;;21.13;14.32;;;;;;;;;;5100220;28;20236;-82
2022/12/10 10:33:58;;;;;;;18.80;13.63;;;;;;;;;;5099363;28;20185;-84
2022/12/10 10:36:28;;;;;;;16.50;13.93;;;;;;;;;;5100651;28;20272;-84
2022/12/10 10:38:56;;;;;;;20.13;14.27;;;;;;;;;;5102560;28;20633;-85
2022/12/10 10:41:26;;;;;;;19.08;13.80;;;;;;;;;;5102708;28;20243;-84
2022/12/10 10:44:03;;;;;;;19.90;14.85;;;;;;;;;;5102491;28;20276;-84
2022/12/10 10:46:31;;;;;;;20.25;14.02;;;;;;;;;;5101866;28;20200;-83
2022/12/10 10:49:20;;;;;;;15.60;13.13;;;;;;;;;;5101898;28;20300;-83
2022/12/10 10:51:47;;;;;;;24.40;17.85;;;;;;;;;;5102250;28;20303;-84
2022/12/10 10:54:34;;;;;;;24.48;16.30;;;;;;;;;;5103120;28;20609;-82
2022/12/10 10:57:06;;;;;;;27.52;18.73;;;;;;;;;;5101628;28;20227;-84
2022/12/10 10:59:36;;;;;;;20.33;14.93;;;;;;;;;;5102107;28;20212;-83
2022/12/10 11:02:16;;;;;;;20.10;14.90;;;;;;;;;;5102312;28;20250;-87
2022/12/10 11:04:49;;;;;;;21.67;13.55;;;;;;;;;;5101809;28;20221;-86
2022/12/10 11:07:25;;;;;;;20.65;14.65;;;;;;;;;;5101883;28;20616;-87
2022/12/10 11:09:54;;;;;;;14.40;10.75;;;;;;;;;;5101920;28;20189;-87
2022/12/10 11:12:31;;;;;;;17.15;13.32;;;;;;;;;;5101994;28;20724;-86
2022/12/10 11:14:59;;;;;;;16.88;10.70;;;;;;;;;;5101957;28;20318;-86
2022/12/10 11:17:28;;;;;;;15.05;11.23;;;;;;;;;;5100828;28;20719;-86
2022/12/10 11:20:00;;;;;;;15.38;11.50;;;;;;;;;;5101486;28;20287;-86
2022/12/10 11:22:31;;;;;;;16.50;11.48;;;;;;;;;;5101002;28;20692;-85
2022/12/10 11:24:59;;;;;;;15.45;11.32;;;;;;;;;;5101263;28;20208;-86
2022/12/10 11:27:39;;;;;;;16.40;11.65;;;;;;;;;;5101134;28;20197;-86
2022/12/10 11:30:12;;;;;;;15.68;10.05;;;;;;;;;;5100013;28;20187;-84
2022/12/10 11:32:58;;;;;;;14.52;9.95;;;;;;;;;;5080101;28;20906;-85
2022/12/10 11:35:39;;;;;;;14.23;11.35;;;;;;;;;;5080444;28;20181;-86
2022/12/10 11:38:22;;;;;;;22.52;14.23;;;;;;;;;;5079119;28;20205;-86
2022/12/10 11:40:53;;;;;;;13.45;10.07;;;;;;;;;;5079835;28;20676;-86
2022/12/10 11:43:36;;;;;;;15.40;11.00;;;;;;;;;;5079291;28;20229;-85
2022/12/10 11:46:23;;;;;;;24.90;15.52;;;;;;;;;;5080117;28;20208;-86
2022/12/10 11:49:06;;;;;;;17.05;11.27;;;;;;;;;;5080627;28;20197;-86
2022/12/10 11:51:40;;;;;;;21.38;13.23;;;;;;;;;;5080644;28;20228;-84
2022/12/10 11:54:39;;;;;;;19.67;13.38;;;;;;;;;;5091455;28;20204;-87
2022/12/10 11:57:15;;;;;;;24.60;14.98;;;;;;;;;;5101901;28;20276;-86
2022/12/10 11:59:50;;;;;;;21.80;15.00;;;;;;;;;;5101481;28;20199;-87
2022/12/10 12:02:55;;;;;;;18.67;12.40;;;;;;;;;;5102364;28;20696;-87
2022/12/10 12:05:37;;;;;;;20.92;13.90;;;;;;;;;;5081066;28;20223;-87
2022/12/10 12:08:11;;;;;;;20.80;11.95;;;;;;;;;;5099748;28;20217;-83
2022/12/10 12:11:14;;;;;;;13.65;10.40;;;;;;;;;;5100011;28;20185;-87
2022/12/10 12:13:51;;;;;;;17.17;12.63;;;;;;;;;;5089928;28;20234;-85
2022/12/10 12:16:22;;;;;;;13.88;10.43;;;;;;;;;;5100117;28;20207;-87
2022/12/10 12:18:56;;;;;;;15.15;11.10;;;;;;;;;;5099621;28;20330;-87
2022/12/10 12:21:24;;;;;;;16.65;11.38;;;;;;;;;;5099619;28;20228;-87
2022/12/10 12:23:55;;;;;;;16.60;11.43;;;;;;;;;;5101091;28;20219;-86
2022/12/10 12:26:29;;;;;;;17.98;12.10;;;;;;;;;;5100813;28;20260;-86
2022/12/10 12:29:02;;;;;;;15.98;11.90;;;;;;;;;;5100205;28;20177;-86
2022/12/10 12:31:34;;;;;;;12.55;9.73;;;;;;;;;;5101209;28;20278;-86
2022/12/10 12:34:06;;;;;;;11.85;8.88;;;;;;;;;;5100044;28;20541;-84
2022/12/10 12:36:35;;;;;;;11.30;9.13;;;;;;;;;;5100708;28;20184;-85
2022/12/10 12:39:12;;;;;;;11.98;9.57;;;;;;;;;;5100623;28;20216;-87
2022/12/10 12:41:46;;;;;;;10.20;8.50;;;;;;;;;;5099874;28;20216;-86
2022/12/10 12:44:19;;;;;;;18.85;13.60;;;;;;;;;;5099762;28;20185;-87
2022/12/10 12:46:48;;;;;;;11.20;8.45;;;;;;;;;;5099540;28;20216;-86
2022/12/10 12:49:24;;;;;;;31.73;16.05;;;;;;;;;;5098016;28;20573;-85
2022/12/10 12:51:57;;;;;;;16.55;11.68;;;;;;;;;;5098878;28;20761;-86
2022/12/10 12:54:24;;;;;;;13.40;7.43;;;;;;;;;;5097439;28;20219;-85
2022/12/10 12:57:01;;;;;;;10.98;8.23;;;;;;;;;;5097085;28;20551;-86
2022/12/10 12:59:46;;;;;;;6.30;5.70;;;;;;;;;;5096705;28;20660;-87
2022/12/10 13:02:23;;;;;;;10.82;7.07;;;;;;;;;;5097393;28;20263;-86
2022/12/10 13:04:53;;;;;;;13.38;10.70;;;;;;;;;;5096564;28;20180;-87
2022/12/10 13:07:36;;;;;;;11.15;9.88;;;;;;;;;;5097193;28;20280;-84
2022/12/10 13:10:44;;;;;;;11.82;9.13;;;;;;;;;;5097809;28;20246;-86
2022/12/10 13:13:25;;;;;;;14.43;9.93;;;;;;;;;;5086599;28;20227;-87
2022/12/10 13:15:53;;;;;;;18.05;13.45;;;;;;;;;;5097169;28;20184;-86
2022/12/10 13:18:37;;;;;;;10.60;8.23;;;;;;;;;;5098155;28;20254;-87
2022/12/10 13:21:32;;;;;;;12.25;9.10;;;;;;;;;;5097346;28;20654;-85
2022/12/10 13:24:13;;;;;;;11.40;8.32;;;;;;;;;;5098398;28;20267;-85
2022/12/10 13:26:59;;;;;;;11.48;9.45;;;;;;;;;;5097232;28;20712;-86
2022/12/10 13:29:28;;;;;;;13.60;9.45;;;;;;;;;;5097702;28;20734;-87
2022/12/10 13:32:04;;;;;;;10.80;8.60;;;;;;;;;;5098131;28;20223;-86
2022/12/10 13:34:35;;;;;;;9.38;7.50;;;;;;;;;;5097469;28;20207;-86
2022/12/10 13:37:19;;;;;;;12.70;10.40;;;;;;;;;;5097923;28;20619;-85
2022/12/10 13:40:00;;;;;;;11.27;9.10;;;;;;;;;;5098394;28;20334;-86
2022/12/10 13:45:34;;;;;;;10.23;7.75;;;;;;;;;;5098352;28;20194;-85
2022/12/10 13:48:32;;;;;;;9.13;7.70;;;;;;;;;;5097780;28;20237;-84
2022/12/10 13:51:35;;;;;;;13.65;8.52;;;;;;;;;;5098529;28;20310;-87
2022/12/10 13:54:45;;;;;;;9.23;7.95;;;;;;;;;;5098703;28;20245;-86
2022/12/10 13:57:28;;;;;;;11.52;7.40;;;;;;;;;;5089615;28;20288;-84
2022/12/10 14:00:04;;;;;;;10.77;7.78;;;;;;;;;;5099368;28;20831;-87
2022/12/10 14:02:54;;;;;;;12.15;8.73;;;;;;;;;;5102679;28;20306;-85
2022/12/10 14:05:44;;;;;;;10.43;8.02;;;;;;;;;;5103233;28;20259;-86
2022/12/10 14:08:17;;;;;;;10.70;7.53;;;;;;;;;;5093100;28;20202;-88
2022/12/10 14:10:46;;;;;;;8.98;7.47;;;;;;;;;;5101158;28;20216;-88
2022/12/10 14:13:17;;;;;;;12.27;9.55;;;;;;;;;;5100714;28;20196;-88
2022/12/10 14:15:53;;;;;;;14.35;10.00;;;;;;;;;;5102269;28;20337;-88
2022/12/10 14:18:20;;;;;;;13.07;9.63;;;;;;;;;;5103922;28;20593;-86
2022/12/10 14:20:50;;;;;;;16.40;12.75;;;;;;;;;;5102409;28;20626;-86
2022/12/10 14:23:33;;;;;;;15.18;11.73;;;;;;;;;;5102573;28;20291;-86
2022/12/10 14:26:07;;;;;;;16.20;11.80;;;;;;;;;;5102369;28;20257;-83
2022/12/10 14:28:38;;;;;;;20.70;14.45;;;;;;;;;;5103245;28;20187;-86
2022/12/10 14:31:11;;;;;;;13.90;11.45;;;;;;;;;;5102664;28;20220;-85
2022/12/10 14:33:39;;;;;;;15.95;12.50;;;;;;;;;;5102557;28;20208;-86
2022/12/10 14:36:07;;;;;;;15.30;11.50;;;;;;;;;;5106271;28;20201;-88
2022/12/10 14:38:35;;;;;;;16.60;13.77;;;;;;;;;;5106033;28;20200;-86
2022/12/10 14:41:05;;;;;;;12.75;10.75;;;;;;;;;;5103782;28;20309;-87
2022/12/10 14:43:39;;;;;;;14.07;11.68;;;;;;;;;;5104270;28;20250;-88
2022/12/10 14:46:16;;;;;;;15.43;12.07;;;;;;;;;;5103771;28;20553;-88
2022/12/10 14:48:45;;;;;;;17.25;13.07;;;;;;;;;;5102656;28;20188;-88
2022/12/10 14:51:16;;;;;;;24.60;17.67;;;;;;;;;;5104940;28;20216;-88
2022/12/10 14:53:44;;;;;;;16.38;13.43;;;;;;;;;;5104177;28;20196;-88
2022/12/10 14:56:19;;;;;;;35.53;24.92;;;;;;;;;;5105152;28;20712;-88
2022/12/10 14:58:50;;;;;;;29.67;21.33;;;;;;;;;;5112735;28;20188;-87
2022/12/10 15:01:27;;;;;;;25.02;18.27;;;;;;;;;;5106098;28;20252;-89